createdAt,value
2023-01-22T00:01:18.738Z,4.72
2023-01-22T00:03:49.127Z,4.47
2023-01-22T00:06:18.553Z,4.13
2023-01-22T00:08:46.634Z,4.80
2023-01-22T00:11:15.352Z,4.35
2023-01-22T00:13:43.468Z,4.13
2023-01-22T00:16:13.624Z,3.67
2023-01-22T00:18:42.148Z,4.00
2023-01-22T00:21:12.100Z,4.20
2023-01-22T00:23:42.057Z,4.97
2023-01-22T00:26:15.417Z,4.40
2023-01-22T00:28:46.015Z,4.20
2023-01-22T00:31:15.903Z,4.18
2023-01-22T00:33:45.203Z,4.15
2023-01-22T00:36:16.320Z,4.88
2023-01-22T00:38:46.412Z,5.13
2023-01-22T00:41:16.145Z,4.57
2023-01-22T00:43:44.112Z,4.50
2023-01-22T00:46:15.876Z,4.07
2023-01-22T00:48:45.230Z,3.95
2023-01-22T00:51:15.488Z,4.40
2023-01-22T00:53:45.067Z,4.60
2023-01-22T00:56:15.829Z,4.32
2023-01-22T00:58:44.526Z,4.43
2023-01-22T01:01:15.432Z,3.97
2023-01-22T01:03:44.144Z,4.03
2023-01-22T01:06:16.576Z,4.28
2023-01-22T01:08:49.533Z,4.03
2023-01-22T01:11:21.823Z,3.75
2023-01-22T01:13:52.093Z,4.30
2023-01-22T01:16:26.467Z,4.15
2023-01-22T01:18:54.642Z,3.97
2023-01-22T01:21:22.580Z,4.50
2023-01-22T01:23:51.966Z,4.00
2023-01-22T01:26:20.167Z,4.10
2023-01-22T01:28:48.050Z,4.35
2023-01-22T01:31:18.193Z,3.95
2023-01-22T01:33:47.116Z,3.70
2023-01-22T01:36:30.757Z,4.38
2023-01-22T01:39:05.411Z,4.28
2023-01-22T01:41:33.299Z,4.32
2023-01-22T01:44:11.077Z,3.70
2023-01-22T01:46:45.465Z,4.10
2023-01-22T01:49:27.368Z,4.28
2023-01-22T01:52:00.413Z,3.92
2023-01-22T01:54:31.787Z,3.38
2023-01-22T01:57:08.703Z,4.30
2023-01-22T01:59:38.830Z,4.00
2023-01-22T02:02:07.842Z,4.25
2023-01-22T02:04:36.408Z,3.92
2023-01-22T02:07:05.514Z,4.00
2023-01-22T02:09:36.301Z,4.28
2023-01-22T02:12:05.394Z,4.10
2023-01-22T02:14:38.233Z,3.88
2023-01-22T02:17:08.978Z,4.70
2023-01-22T02:19:36.882Z,4.18
2023-01-22T02:22:13.427Z,3.92
2023-01-22T02:24:41.465Z,3.95
2023-01-22T02:27:10.134Z,4.53
2023-01-22T02:29:38.760Z,4.40
2023-01-22T02:32:07.394Z,4.38
2023-01-22T02:34:36.918Z,4.03
2023-01-22T02:37:06.761Z,3.53
2023-01-22T02:39:34.794Z,4.18
2023-01-22T02:42:06.931Z,4.15
2023-01-22T02:44:35.015Z,4.80
2023-01-22T02:47:02.965Z,3.90
2023-01-22T02:49:30.932Z,4.28
2023-01-22T02:51:58.940Z,3.67
2023-01-22T02:54:28.404Z,3.92
2023-01-22T02:56:57.396Z,4.20
2023-01-22T02:59:25.708Z,3.97
2023-01-22T03:01:53.647Z,4.20
2023-01-22T03:04:21.629Z,4.50
2023-01-22T03:06:49.576Z,3.95
2023-01-22T03:09:18.743Z,4.18
2023-01-22T03:11:48.585Z,3.95
2023-01-22T03:14:41.345Z,4.05
2023-01-22T03:17:27.971Z,4.03
2023-01-22T03:20:14.134Z,3.53
2023-01-22T03:22:42.052Z,3.58
2023-01-22T03:25:10.326Z,4.13
2023-01-22T03:27:59.873Z,3.88
2023-01-22T03:30:27.823Z,4.05
2023-01-22T03:32:56.745Z,4.28
2023-01-22T03:35:25.149Z,3.30
2023-01-22T03:38:05.377Z,4.13
2023-01-22T03:40:33.222Z,3.72
2023-01-22T03:43:03.008Z,3.97
2023-01-22T03:45:33.914Z,4.18
2023-01-22T03:48:02.887Z,3.88
2023-01-22T03:50:37.052Z,4.37
2023-01-22T03:53:05.032Z,4.25
2023-01-22T03:55:34.124Z,4.30
2023-01-22T03:58:04.082Z,4.30
2023-01-22T04:00:32.024Z,5.60
2023-01-22T04:03:00.614Z,6.20
2023-01-22T04:05:33.424Z,4.30
2023-01-22T04:08:01.492Z,4.90
2023-01-22T04:10:31.772Z,4.20
2023-01-22T04:13:04.009Z,4.47
2023-01-22T04:15:31.943Z,4.30
2023-01-22T04:18:02.656Z,4.85
2023-01-22T04:20:56.749Z,4.80
2023-01-22T04:23:42.834Z,5.25
2023-01-22T04:26:11.665Z,5.15
2023-01-22T04:28:40.996Z,4.82
2023-01-22T04:31:10.166Z,4.82
2023-01-22T04:33:44.645Z,4.80
2023-01-22T04:36:28.937Z,3.72
2023-01-22T04:38:57.180Z,4.97
2023-01-22T04:41:25.157Z,4.57
2023-01-22T04:43:55.252Z,4.43
2023-01-22T04:46:25.792Z,5.18
2023-01-22T04:48:54.414Z,5.00
2023-01-22T04:51:22.442Z,5.47
2023-01-22T04:53:50.486Z,5.18
2023-01-22T04:56:18.913Z,4.68
2023-01-22T04:58:47.548Z,5.43
2023-01-22T05:01:17.698Z,5.88
2023-01-22T05:03:46.229Z,6.13
2023-01-22T05:06:14.340Z,6.30
2023-01-22T05:08:42.259Z,5.50
2023-01-22T05:11:11.549Z,5.82
2023-01-22T05:13:46.564Z,5.95
2023-01-22T05:16:14.537Z,5.90
2023-01-22T05:18:43.959Z,6.20
2023-01-22T05:21:11.956Z,5.82
2023-01-22T05:23:39.905Z,6.38
2023-01-22T05:26:08.494Z,6.30
2023-01-22T05:28:43.341Z,5.13
2023-01-22T05:31:31.029Z,4.68
2023-01-22T05:34:06.482Z,4.90
2023-01-22T05:36:34.739Z,5.25
2023-01-22T05:39:08.965Z,5.35
2023-01-22T05:41:37.537Z,5.60
2023-01-22T05:44:07.514Z,5.03
2023-01-22T05:46:35.491Z,4.68
2023-01-22T05:49:27.641Z,4.25
2023-01-22T05:51:57.834Z,4.18
2023-01-22T05:54:25.830Z,4.55
2023-01-22T05:56:53.923Z,4.40
2023-01-22T05:59:21.889Z,4.72
2023-01-22T06:01:56.311Z,4.50
2023-01-22T06:04:24.559Z,4.15
2023-01-22T06:06:54.114Z,4.82
2023-01-22T06:09:24.878Z,4.88
2023-01-22T06:11:53.235Z,5.20
2023-01-22T06:14:21.499Z,5.25
2023-01-22T06:16:50.224Z,5.53
2023-01-22T06:19:38.364Z,5.57
2023-01-22T06:22:09.128Z,5.40
2023-01-22T06:24:46.878Z,4.40
2023-01-22T06:27:16.655Z,5.25
2023-01-22T06:29:55.047Z,5.10
2023-01-22T06:32:23.005Z,6.40
2023-01-22T06:34:52.818Z,5.40
2023-01-22T06:37:22.893Z,5.75
2023-01-22T06:39:51.334Z,5.53
2023-01-22T06:42:33.091Z,4.80
2023-01-22T06:45:01.119Z,4.85
2023-01-22T06:47:31.479Z,4.72
2023-01-22T06:49:59.787Z,5.18
2023-01-22T06:52:29.102Z,5.72
2023-01-22T06:54:57.591Z,5.00
2023-01-22T06:57:26.686Z,5.13
2023-01-22T06:59:54.580Z,5.70
2023-01-22T07:02:22.869Z,4.82
2023-01-22T07:04:50.718Z,5.50
2023-01-22T07:07:18.623Z,6.35
2023-01-22T07:09:47.870Z,7.40
2023-01-22T07:12:15.788Z,7.15
2023-01-22T07:14:43.802Z,7.80
2023-01-22T07:17:11.689Z,9.32
2023-01-22T07:19:39.543Z,6.40
2023-01-22T07:22:07.690Z,7.15
2023-01-22T07:24:35.680Z,6.85
2023-01-22T07:27:05.215Z,7.80
2023-01-22T07:29:33.086Z,7.32
2023-01-22T07:32:01.063Z,6.90
2023-01-22T07:34:28.998Z,7.93
2023-01-22T07:36:56.864Z,8.38
2023-01-22T07:39:25.040Z,8.43
2023-01-22T07:41:52.891Z,8.73
2023-01-22T07:44:22.477Z,9.13
2023-01-22T07:46:50.616Z,8.43
2023-01-22T07:49:18.511Z,8.35
2023-01-22T07:51:46.423Z,9.85
2023-01-22T07:54:15.402Z,7.70
2023-01-22T07:56:44.778Z,8.40
2023-01-22T07:59:12.945Z,7.78
2023-01-22T08:01:42.180Z,8.80
2023-01-22T08:04:10.179Z,8.15
2023-01-22T08:06:38.037Z,8.32
2023-01-22T08:09:07.079Z,9.48
2023-01-22T08:11:34.922Z,10.00
2023-01-22T08:14:02.806Z,8.60
2023-01-22T08:16:30.758Z,8.98
2023-01-22T08:19:00.329Z,9.68
2023-01-22T08:21:28.166Z,9.05
2023-01-22T08:23:56.380Z,7.57
2023-01-22T08:26:24.325Z,13.00
2023-01-22T08:28:52.178Z,10.18
2023-01-22T08:31:27.921Z,10.25
2023-01-22T08:33:56.582Z,9.90
2023-01-22T08:36:26.162Z,10.15
2023-01-22T08:38:54.090Z,10.57
2023-01-22T08:41:22.655Z,9.55
2023-01-22T08:43:52.130Z,8.30
2023-01-22T08:46:20.820Z,10.07
2023-01-22T08:48:50.161Z,10.50
2023-01-22T08:51:18.220Z,10.05
2023-01-22T08:53:47.462Z,9.25
2023-01-22T08:56:15.386Z,11.95
2023-01-22T08:58:43.291Z,16.42
2023-01-22T09:01:17.477Z,17.75
2023-01-22T09:03:45.671Z,15.65
2023-01-22T09:06:13.982Z,14.10
2023-01-22T09:08:42.258Z,14.43
2023-01-22T09:11:11.616Z,12.55
2023-01-22T09:13:40.000Z,10.02
2023-01-22T09:16:10.775Z,9.45
2023-01-22T09:18:38.973Z,9.90
2023-01-22T09:21:08.123Z,9.82
2023-01-22T09:23:36.070Z,9.65
2023-01-22T09:26:04.220Z,9.32
2023-01-22T09:28:35.969Z,9.57
2023-01-22T09:31:05.111Z,10.57
2023-01-22T09:33:33.042Z,9.07
2023-01-22T09:36:09.877Z,10.15
2023-01-22T09:38:38.363Z,10.02
2023-01-22T09:41:19.826Z,9.30
2023-01-22T09:43:55.172Z,11.07
2023-01-22T09:46:31.232Z,11.57
2023-01-22T09:49:08.306Z,9.85
2023-01-22T09:51:36.647Z,10.52
2023-01-22T09:54:07.565Z,9.98
2023-01-22T09:56:42.478Z,11.52
2023-01-22T09:59:19.629Z,9.77
2023-01-22T10:01:52.184Z,9.13
2023-01-22T10:04:35.880Z,12.80
2023-01-22T10:07:10.962Z,9.68
2023-01-22T10:09:46.126Z,10.32
2023-01-22T10:12:15.108Z,11.50
2023-01-22T10:14:45.701Z,10.30
2023-01-22T10:17:22.564Z,10.20
2023-01-22T10:19:56.659Z,9.55
2023-01-22T10:22:27.200Z,9.98
2023-01-22T10:24:57.063Z,10.93
2023-01-22T10:27:38.879Z,9.98
2023-01-22T10:30:21.777Z,10.25
2023-01-22T10:33:00.652Z,12.10
2023-01-22T10:35:31.807Z,12.82
2023-01-22T10:38:01.094Z,10.77
2023-01-22T10:40:37.782Z,11.43
2023-01-22T10:43:11.895Z,11.70
2023-01-22T10:45:54.508Z,10.48
2023-01-22T10:48:23.741Z,11.02
2023-01-22T10:51:12.143Z,10.82
2023-01-22T10:53:48.758Z,11.05
2023-01-22T10:56:32.261Z,11.57
2023-01-22T10:59:05.234Z,11.02
2023-01-22T11:01:38.205Z,10.27
2023-01-22T11:04:22.965Z,11.07
2023-01-22T11:06:57.031Z,10.82
2023-01-22T11:09:34.954Z,11.10
2023-01-22T11:12:13.101Z,10.55
2023-01-22T11:14:41.131Z,13.13
2023-01-22T11:17:21.062Z,12.50
2023-01-22T11:19:58.079Z,13.40
2023-01-22T11:22:34.512Z,11.50
2023-01-22T11:25:03.427Z,11.00
2023-01-22T11:28:13.017Z,12.38
2023-01-22T11:31:21.544Z,10.18
2023-01-22T11:34:40.123Z,10.77
2023-01-22T11:37:14.748Z,9.68
2023-01-22T11:40:05.382Z,10.45
2023-01-22T11:42:57.778Z,11.35
2023-01-22T11:45:47.609Z,11.00
2023-01-22T11:48:33.937Z,10.93
2023-01-22T11:51:18.718Z,10.50
2023-01-22T11:54:20.697Z,10.98
2023-01-22T11:57:18.032Z,11.07
2023-01-22T12:00:20.201Z,10.43
2023-01-22T12:03:20.057Z,9.98
2023-01-22T12:06:02.296Z,11.15
2023-01-22T12:08:51.036Z,10.60
2023-01-22T12:11:45.299Z,12.02
2023-01-22T12:14:36.336Z,11.52
2023-01-22T12:17:23.874Z,10.50
2023-01-22T12:20:18.169Z,11.57
2023-01-22T12:22:55.973Z,10.68
2023-01-22T12:25:37.876Z,11.95
2023-01-22T12:28:16.096Z,12.75
2023-01-22T12:30:55.342Z,11.80
2023-01-22T12:33:29.617Z,11.30
2023-01-22T12:36:02.148Z,11.23
2023-01-22T12:38:43.655Z,11.40
2023-01-22T12:41:37.748Z,10.35
2023-01-22T12:44:24.297Z,10.35
2023-01-22T12:47:06.582Z,10.80
2023-01-22T12:49:46.204Z,11.68
2023-01-22T12:52:34.471Z,11.27
2023-01-22T12:55:22.048Z,13.07
2023-01-22T12:57:51.469Z,10.05
2023-01-22T13:00:34.488Z,11.30
2023-01-22T13:03:04.945Z,11.60
2023-01-22T13:05:45.516Z,11.27
2023-01-22T13:08:44.499Z,10.75
2023-01-22T13:11:15.692Z,10.68
2023-01-22T13:13:51.574Z,10.90
2023-01-22T13:16:27.560Z,10.60
2023-01-22T13:19:00.603Z,10.98
2023-01-22T13:21:32.266Z,10.05
2023-01-22T13:24:04.246Z,9.90
2023-01-22T13:26:36.502Z,11.85
2023-01-22T13:29:19.487Z,10.20
2023-01-22T13:31:54.025Z,11.02
2023-01-22T13:34:22.443Z,11.23
2023-01-22T13:36:52.053Z,11.48
2023-01-22T13:39:25.928Z,10.35
2023-01-22T13:41:56.189Z,10.60
2023-01-22T13:44:31.723Z,11.68
2023-01-22T13:47:00.398Z,11.77
2023-01-22T13:49:31.266Z,12.60
2023-01-22T13:52:06.780Z,12.65
2023-01-22T13:54:42.908Z,12.40
2023-01-22T13:57:14.999Z,12.98
2023-01-22T13:59:54.802Z,16.95
2023-01-22T14:02:25.289Z,12.32
2023-01-22T14:04:53.564Z,13.70
2023-01-22T14:07:27.871Z,11.20
2023-01-22T14:09:57.239Z,13.75
2023-01-22T14:12:30.194Z,14.02
2023-01-22T14:14:59.415Z,11.20
2023-01-22T14:17:30.700Z,13.07
2023-01-22T14:19:59.412Z,13.85
2023-01-22T14:22:28.031Z,15.45
2023-01-22T14:24:56.509Z,13.25
2023-01-22T14:27:30.236Z,13.70
2023-01-22T14:29:59.819Z,13.20
2023-01-22T14:32:27.801Z,13.07
2023-01-22T14:34:55.728Z,12.20
2023-01-22T14:37:23.616Z,11.23
2023-01-22T14:39:51.464Z,11.02
2023-01-22T14:42:19.365Z,10.70
2023-01-22T14:44:47.203Z,12.05
2023-01-22T14:47:16.543Z,11.73
2023-01-22T14:49:44.397Z,11.95
2023-01-22T14:52:12.291Z,12.07
2023-01-22T14:54:40.291Z,12.52
2023-01-22T14:57:08.453Z,12.20
2023-01-22T14:59:36.652Z,11.93
2023-01-22T15:02:05.020Z,12.98
2023-01-22T15:04:34.211Z,14.20
2023-01-22T15:07:02.059Z,13.43
2023-01-22T15:09:29.925Z,13.15
2023-01-22T15:11:58.622Z,15.55
2023-01-22T15:14:27.072Z,14.52
2023-01-22T15:16:54.923Z,17.83
2023-01-22T15:19:22.875Z,18.20
2023-01-22T15:21:52.059Z,13.45
2023-01-22T15:24:19.973Z,14.98
2023-01-22T15:26:47.935Z,13.40
2023-01-22T15:29:15.956Z,13.23
2023-01-22T15:31:43.950Z,15.38
2023-01-22T15:34:11.875Z,16.00
2023-01-22T15:36:40.547Z,17.73
2023-01-22T15:39:10.206Z,16.30
2023-01-22T15:41:39.360Z,10.82
2023-01-22T15:44:07.829Z,11.73
2023-01-22T15:46:38.889Z,12.15
2023-01-22T15:49:09.032Z,11.32
2023-01-22T15:51:37.597Z,13.20
2023-01-22T15:54:09.328Z,16.13
2023-01-22T15:56:39.029Z,14.10
2023-01-22T15:59:07.645Z,14.02
2023-01-22T16:01:36.204Z,15.70
2023-01-22T16:04:04.984Z,14.20
2023-01-22T16:06:34.954Z,13.80
2023-01-22T16:09:07.291Z,16.52
2023-01-22T16:11:37.466Z,17.67
2023-01-22T16:14:05.703Z,19.52
2023-01-22T16:16:36.995Z,16.05
2023-01-22T16:19:08.825Z,16.25
2023-01-22T16:21:37.112Z,17.73
2023-01-22T16:24:06.211Z,14.52
2023-01-22T16:26:36.676Z,17.08
2023-01-22T16:29:06.983Z,17.10
2023-01-22T16:31:37.381Z,15.60
2023-01-22T16:34:12.059Z,19.38
2023-01-22T16:36:41.944Z,17.23
2023-01-22T16:39:17.499Z,17.65
2023-01-22T16:41:49.379Z,17.08
2023-01-22T16:44:20.893Z,15.63
2023-01-22T16:46:52.303Z,21.15
2023-01-22T16:49:23.199Z,20.77
2023-01-22T16:51:54.104Z,17.70
2023-01-22T16:54:27.886Z,17.65
2023-01-22T16:56:59.007Z,15.45
2023-01-22T16:59:27.992Z,16.60
2023-01-22T17:01:57.865Z,17.63
2023-01-22T17:04:26.356Z,15.98
2023-01-22T17:06:57.040Z,23.40
2023-01-22T17:09:28.150Z,17.90
2023-01-22T17:12:00.158Z,17.20
2023-01-22T17:14:31.546Z,19.75
2023-01-22T17:16:59.957Z,18.40
2023-01-22T17:19:28.247Z,16.50
2023-01-22T17:21:58.842Z,16.10
2023-01-22T17:24:27.469Z,14.10
2023-01-22T17:26:58.381Z,15.73
2023-01-22T17:29:26.839Z,18.27
2023-01-22T17:31:54.954Z,14.73
2023-01-22T17:34:23.279Z,14.55
2023-01-22T17:36:51.171Z,19.65
2023-01-22T17:39:21.044Z,18.00
2023-01-22T17:41:48.927Z,16.63
2023-01-22T17:44:18.417Z,17.75
2023-01-22T17:46:48.955Z,15.35
2023-01-22T17:49:16.868Z,18.08
2023-01-22T17:51:44.772Z,19.60
2023-01-22T17:54:13.185Z,19.33
2023-01-22T17:56:45.371Z,17.45
2023-01-22T17:59:13.894Z,18.10
2023-01-22T18:01:44.979Z,17.48
2023-01-22T18:04:14.815Z,17.02
2023-01-22T18:06:44.723Z,15.23
2023-01-22T18:09:13.694Z,13.70
2023-01-22T18:11:43.277Z,18.38
2023-01-22T18:14:17.313Z,14.68
2023-01-22T18:16:46.517Z,16.70
2023-01-22T18:19:14.985Z,17.77
2023-01-22T18:21:42.928Z,14.27
2023-01-22T18:24:13.402Z,17.23
2023-01-22T18:26:41.585Z,16.33
2023-01-22T18:29:11.433Z,17.00
2023-01-22T18:31:40.100Z,15.30
2023-01-22T18:34:14.303Z,18.25
2023-01-22T18:36:44.006Z,15.13
2023-01-22T18:39:16.673Z,16.83
2023-01-22T18:41:46.905Z,15.00
2023-01-22T18:44:17.314Z,17.88
2023-01-22T18:46:48.079Z,17.30
2023-01-22T18:49:19.716Z,17.40
2023-01-22T18:51:48.034Z,20.48
2023-01-22T18:54:17.320Z,21.83
2023-01-22T18:56:45.355Z,17.13
2023-01-22T18:59:13.324Z,15.90
2023-01-22T19:01:42.744Z,17.42
2023-01-22T19:04:17.797Z,14.70
2023-01-22T19:06:51.777Z,16.35
2023-01-22T19:09:20.860Z,15.80
2023-01-22T19:11:52.159Z,18.10
2023-01-22T19:14:21.794Z,16.10
2023-01-22T19:16:53.197Z,16.83
2023-01-22T19:19:22.749Z,17.48
2023-01-22T19:21:56.126Z,15.88
2023-01-22T19:24:28.132Z,14.75
2023-01-22T19:26:56.932Z,17.63
2023-01-22T19:29:27.301Z,13.60
2023-01-22T19:31:56.970Z,11.38
2023-01-22T19:34:27.299Z,11.05
2023-01-22T19:37:01.122Z,12.27
2023-01-22T19:39:29.921Z,15.52
2023-01-22T19:42:01.660Z,11.15
2023-01-22T19:44:30.040Z,11.05
2023-01-22T19:46:57.981Z,10.40
2023-01-22T19:49:25.918Z,9.50
2023-01-22T19:51:53.795Z,10.48
2023-01-22T19:54:24.560Z,10.23
2023-01-22T19:56:52.982Z,10.23
2023-01-22T19:59:24.160Z,10.77
2023-01-22T20:01:53.442Z,11.45
2023-01-22T20:04:25.444Z,9.55
2023-01-22T20:06:58.612Z,10.23
2023-01-22T20:09:28.562Z,9.38
2023-01-22T20:11:58.636Z,10.90
2023-01-22T20:14:30.955Z,9.15
2023-01-22T20:17:00.128Z,8.48
2023-01-22T20:19:29.134Z,8.45
2023-01-22T20:21:57.496Z,9.40
2023-01-22T20:24:28.087Z,9.88
2023-01-22T20:26:58.549Z,9.55
2023-01-22T20:29:26.834Z,9.70
2023-01-22T20:31:56.745Z,9.35
2023-01-22T20:34:24.754Z,10.43
2023-01-22T20:36:53.091Z,10.23
2023-01-22T20:39:21.035Z,9.93
2023-01-22T20:41:50.263Z,10.05
2023-01-22T20:44:18.715Z,9.88
2023-01-22T20:46:48.664Z,9.65
2023-01-22T20:49:16.881Z,9.63
2023-01-22T20:51:44.940Z,9.15
2023-01-22T20:54:13.825Z,10.10
2023-01-22T20:56:42.495Z,9.48
2023-01-22T20:59:17.221Z,9.90
2023-01-22T21:01:45.949Z,9.98
2023-01-22T21:04:15.281Z,10.45
2023-01-22T21:06:43.744Z,10.32
2023-01-22T21:09:12.824Z,11.07
2023-01-22T21:11:43.181Z,11.15
2023-01-22T21:14:17.761Z,10.25
2023-01-22T21:16:46.428Z,11.38
2023-01-22T21:19:18.537Z,10.52
2023-01-22T21:21:47.029Z,10.00
2023-01-22T21:24:14.990Z,10.85
2023-01-22T21:26:44.543Z,10.95
2023-01-22T21:29:17.122Z,11.50
2023-01-22T21:31:48.836Z,10.60
2023-01-22T21:34:18.669Z,10.88
2023-01-22T21:36:49.665Z,10.95
2023-01-22T21:39:21.434Z,10.27
2023-01-22T21:41:49.633Z,12.07
2023-01-22T21:44:46.963Z,11.73
2023-01-22T21:47:15.119Z,11.43
2023-01-22T21:49:43.635Z,11.48
2023-01-22T21:52:11.535Z,11.95
2023-01-22T21:54:42.067Z,11.80
2023-01-22T21:57:14.316Z,13.10
2023-01-22T21:59:45.571Z,11.65
2023-01-22T22:02:18.663Z,11.80
2023-01-22T22:04:47.279Z,12.77
2023-01-22T22:07:15.317Z,12.43
2023-01-22T22:09:44.185Z,12.43
2023-01-22T22:12:12.608Z,11.82
2023-01-22T22:14:40.488Z,14.60
2023-01-22T22:17:09.748Z,11.95
2023-01-22T22:19:37.780Z,13.63
2023-01-22T22:22:05.642Z,13.60
2023-01-22T22:24:33.894Z,14.20
2023-01-22T22:27:02.260Z,13.77
2023-01-22T22:29:30.130Z,15.60
2023-01-22T22:31:58.345Z,16.23
2023-01-22T22:34:27.621Z,14.82
2023-01-22T22:36:55.686Z,14.30
2023-01-22T22:39:23.580Z,15.63
2023-01-22T22:41:51.451Z,18.02
2023-01-22T22:44:19.342Z,15.00
2023-01-22T22:46:47.239Z,17.05
2023-01-22T22:49:15.508Z,16.13
2023-01-22T22:51:45.768Z,14.80
2023-01-22T22:54:16.683Z,14.73
2023-01-22T22:56:45.551Z,15.57
2023-01-22T22:59:14.846Z,16.90
2023-01-22T23:01:43.001Z,14.48
2023-01-22T23:04:13.748Z,15.63
2023-01-22T23:06:46.174Z,16.35
2023-01-22T23:09:17.651Z,16.10
2023-01-22T23:11:46.410Z,15.65
2023-01-22T23:14:14.452Z,14.07
2023-01-22T23:16:44.341Z,15.88
2023-01-22T23:19:17.378Z,14.90
2023-01-22T23:21:49.449Z,14.90
2023-01-22T23:24:17.953Z,18.40
2023-01-22T23:26:47.052Z,19.33
2023-01-22T23:29:19.294Z,16.52
2023-01-22T23:31:47.580Z,26.45
2023-01-22T23:34:19.505Z,19.17
2023-01-22T23:36:50.206Z,15.10
2023-01-22T23:39:21.967Z,18.85
2023-01-22T23:41:50.454Z,18.45
2023-01-22T23:44:18.470Z,16.15
2023-01-22T23:46:46.353Z,16.20
2023-01-22T23:49:14.291Z,16.65
2023-01-22T23:51:44.259Z,18.27
2023-01-22T23:54:13.696Z,16.17
2023-01-22T23:56:41.654Z,20.40
2023-01-22T23:59:11.550Z,16.35
